sensor_id;sensor_type;location;lat;lon;timestamp;pressure;altitude;pressure_sealevel;temperature;humidity
16738;BME280;17906;47.684;10.806;2023-04-01T00:00:59;92101.09;;;4.11;77.68
16738;BME280;17906;47.684;10.806;2023-04-01T00:03:28;92088.72;;;4.09;76.13
16738;BME280;17906;47.684;10.806;2023-04-01T00:05:55;92090.38;;;4.11;75.86
16738;BME280;17906;47.684;10.806;2023-04-01T00:08:22;92095.25;;;4.14;76.92
16738;BME280;17906;47.684;10.806;2023-04-01T00:10:48;92095.75;;;4.11;76.35
16738;BME280;17906;47.684;10.806;2023-04-01T00:13:15;92095.94;;;4.09;75.82
16738;BME280;17906;47.684;10.806;2023-04-01T00:15:42;92101.09;;;4.11;74.81
16738;BME280;17906;47.684;10.806;2023-04-01T00:18:11;92094.69;;;4.12;75.38
16738;BME280;17906;47.684;10.806;2023-04-01T00:20:37;92090.66;;;4.26;74.53
16738;BME280;17906;47.684;10.806;2023-04-01T00:23:04;92086.34;;;4.25;75.17
16738;BME280;17906;47.684;10.806;2023-04-01T00:25:31;92097.13;;;4.42;71.69
16738;BME280;17906;47.684;10.806;2023-04-01T00:27:57;92100.63;;;4.42;73.20
16738;BME280;17906;47.684;10.806;2023-04-01T00:30:24;92102.03;;;4.45;73.42
16738;BME280;17906;47.684;10.806;2023-04-01T00:32:51;92092.94;;;4.46;71.08
16738;BME280;17906;47.684;10.806;2023-04-01T00:35:20;92092.56;;;4.54;71.23
16738;BME280;17906;47.684;10.806;2023-04-01T00:37:47;92084.41;;;4.49;72.26
16738;BME280;17906;47.684;10.806;2023-04-01T00:40:23;92086.69;;;4.57;71.50
16738;BME280;17906;47.684;10.806;2023-04-01T00:42:50;92095.25;;;4.54;72.44
16738;BME280;17906;47.684;10.806;2023-04-01T00:45:26;92103.03;;;4.55;71.43
16738;BME280;17906;47.684;10.806;2023-04-01T00:47:54;92080.91;;;4.48;72.50
16738;BME280;17906;47.684;10.806;2023-04-01T00:50:24;92099.31;;;4.56;72.48
16738;BME280;17906;47.684;10.806;2023-04-01T00:52:51;92098.75;;;4.54;71.95
16738;BME280;17906;47.684;10.806;2023-04-01T00:55:20;92097.56;;;4.50;74.07
16738;BME280;17906;47.684;10.806;2023-04-01T00:57:49;92107.41;;;4.45;75.27
16738;BME280;17906;47.684;10.806;2023-04-01T01:00:17;92100.63;;;4.42;75.26
16738;BME280;17906;47.684;10.806;2023-04-01T01:02:45;92093.06;;;4.39;74.59
16738;BME280;17906;47.684;10.806;2023-04-01T01:05:13;92099.63;;;4.31;76.52
16738;BME280;17906;47.684;10.806;2023-04-01T01:07:47;92095.91;;;4.32;76.15
16738;BME280;17906;47.684;10.806;2023-04-01T01:10:24;92098.38;;;4.22;77.18
16738;BME280;17906;47.684;10.806;2023-04-01T01:13:01;92087.44;;;4.12;78.60
16738;BME280;17906;47.684;10.806;2023-04-01T01:15:32;92094.19;;;4.15;79.51
16738;BME280;17906;47.684;10.806;2023-04-01T01:18:05;92095.84;;;4.04;80.64
16738;BME280;17906;47.684;10.806;2023-04-01T01:20:57;92102.16;;;3.98;81.45
16738;BME280;17906;47.684;10.806;2023-04-01T01:23:50;92105.56;;;3.93;81.65
16738;BME280;17906;47.684;10.806;2023-04-01T01:26:35;92096.47;;;3.94;83.11
16738;BME280;17906;47.684;10.806;2023-04-01T01:29:16;92114.91;;;3.79;85.46
16738;BME280;17906;47.684;10.806;2023-04-01T01:31:51;92100.59;;;3.62;85.47
16738;BME280;17906;47.684;10.806;2023-04-01T01:34:25;92111.41;;;3.67;86.43
16738;BME280;17906;47.684;10.806;2023-04-01T01:36:57;92105.47;;;3.65;86.36
16738;BME280;17906;47.684;10.806;2023-04-01T01:39:28;92108.25;;;3.58;86.35
16738;BME280;17906;47.684;10.806;2023-04-01T01:41:57;92098.00;;;3.67;85.17
16738;BME280;17906;47.684;10.806;2023-04-01T01:44:28;92104.75;;;3.58;86.88
16738;BME280;17906;47.684;10.806;2023-04-01T01:46:56;92108.38;;;3.51;87.02
16738;BME280;17906;47.684;10.806;2023-04-01T01:49:24;92107.06;;;3.54;87.67
16738;BME280;17906;47.684;10.806;2023-04-01T01:51:51;92101.38;;;3.50;85.94
16738;BME280;17906;47.684;10.806;2023-04-01T01:54:19;92097.97;;;3.55;85.55
16738;BME280;17906;47.684;10.806;2023-04-01T01:56:49;92110.56;;;3.55;87.57
16738;BME280;17906;47.684;10.806;2023-04-01T01:59:19;92111.28;;;3.50;88.63
16738;BME280;17906;47.684;10.806;2023-04-01T02:01:49;92119.66;;;3.42;89.39
16738;BME280;17906;47.684;10.806;2023-04-01T02:04:17;92123.28;;;3.36;90.73
16738;BME280;17906;47.684;10.806;2023-04-01T02:06:49;92140.97;;;3.25;91.47
16738;BME280;17906;47.684;10.806;2023-04-01T02:09:19;92126.28;;;3.28;93.05
16738;BME280;17906;47.684;10.806;2023-04-01T02:11:48;92129.44;;;3.25;94.91
16738;BME280;17906;47.684;10.806;2023-04-01T02:14:19;92128.16;;;3.15;94.84
16738;BME280;17906;47.684;10.806;2023-04-01T02:16:51;92130.09;;;3.08;97.02
16738;BME280;17906;47.684;10.806;2023-04-01T02:19:20;92136.03;;;2.99;98.33
16738;BME280;17906;47.684;10.806;2023-04-01T02:21:50;92147.06;;;2.90;97.62
16738;BME280;17906;47.684;10.806;2023-04-01T02:24:20;92135.19;;;2.86;97.86
16738;BME280;17906;47.684;10.806;2023-04-01T02:26:50;92134.47;;;2.79;98.91
16738;BME280;17906;47.684;10.806;2023-04-01T02:29:18;92134.59;;;2.84;98.36
16738;BME280;17906;47.684;10.806;2023-04-01T02:31:46;92133.63;;;2.79;98.68
16738;BME280;17906;47.684;10.806;2023-04-01T02:34:13;92127.94;;;2.75;99.16
16738;BME280;17906;47.684;10.806;2023-04-01T02:36:41;92125.16;;;2.70;99.19
16738;BME280;17906;47.684;10.806;2023-04-01T02:39:08;92130.50;;;2.70;100.00
16738;BME280;17906;47.684;10.806;2023-04-01T02:41:39;92131.16;;;2.65;100.00
16738;BME280;17906;47.684;10.806;2023-04-01T02:44:07;92133.84;;;2.65;100.00
16738;BME280;17906;47.684;10.806;2023-04-01T02:46:34;92127.34;;;2.73;100.00
16738;BME280;17906;47.684;10.806;2023-04-01T02:49:00;92118.75;;;2.71;98.69
16738;BME280;17906;47.684;10.806;2023-04-01T02:51:28;92102.47;;;2.73;96.79
16738;BME280;17906;47.684;10.806;2023-04-01T02:53:54;92106.19;;;2.72;96.60
16738;BME280;17906;47.684;10.806;2023-04-01T02:56:21;92108.41;;;2.75;96.53
16738;BME280;17906;47.684;10.806;2023-04-01T02:58:49;92113.97;;;2.73;98.05
16738;BME280;17906;47.684;10.806;2023-04-01T03:01:15;92127.03;;;2.81;96.96
16738;BME280;17906;47.684;10.806;2023-04-01T03:03:42;92125.63;;;2.79;96.37
16738;BME280;17906;47.684;10.806;2023-04-01T03:06:11;92120.25;;;2.79;97.12
16738;BME280;17906;47.684;10.806;2023-04-01T03:08:38;92129.72;;;2.81;97.70
16738;BME280;17906;47.684;10.806;2023-04-01T03:11:05;92127.72;;;2.88;96.95
16738;BME280;17906;47.684;10.806;2023-04-01T03:13:32;92117.59;;;2.90;95.63
16738;BME280;17906;47.684;10.806;2023-04-01T03:16:00;92127.97;;;2.87;93.94
16738;BME280;17906;47.684;10.806;2023-04-01T03:18:27;92135.75;;;2.88;95.90
16738;BME280;17906;47.684;10.806;2023-04-01T03:20:53;92145.31;;;2.84;94.62
16738;BME280;17906;47.684;10.806;2023-04-01T03:23:20;92155.19;;;2.84;95.78
16738;BME280;17906;47.684;10.806;2023-04-01T03:25:47;92159.28;;;2.86;95.77
16738;BME280;17906;47.684;10.806;2023-04-01T03:28:15;92155.00;;;2.97;94.17
16738;BME280;17906;47.684;10.806;2023-04-01T03:30:41;92138.34;;;2.95;94.86
16738;BME280;17906;47.684;10.806;2023-04-01T03:33:09;92145.69;;;3.00;93.81
16738;BME280;17906;47.684;10.806;2023-04-01T03:35:36;92149.16;;;3.00;92.35
16738;BME280;17906;47.684;10.806;2023-04-01T03:38:03;92144.78;;;3.06;90.22
16738;BME280;17906;47.684;10.806;2023-04-01T03:40:29;92137.91;;;3.10;91.33
16738;BME280;17906;47.684;10.806;2023-04-01T03:42:58;92143.63;;;3.13;91.45
16738;BME280;17906;47.684;10.806;2023-04-01T03:45:25;92126.88;;;3.18;88.31
16738;BME280;17906;47.684;10.806;2023-04-01T03:47:51;92133.84;;;3.19;87.95
16738;BME280;17906;47.684;10.806;2023-04-01T03:50:19;92135.63;;;3.25;84.94
16738;BME280;17906;47.684;10.806;2023-04-01T03:52:46;92127.22;;;3.33;86.35
16738;BME280;17906;47.684;10.806;2023-04-01T03:55:12;92135.25;;;3.21;86.56
16738;BME280;17906;47.684;10.806;2023-04-01T03:57:39;92134.19;;;3.34;85.56
16738;BME280;17906;47.684;10.806;2023-04-01T04:00:07;92134.81;;;3.25;85.75
16738;BME280;17906;47.684;10.806;2023-04-01T04:02:34;92131.19;;;3.31;85.65
16738;BME280;17906;47.684;10.806;2023-04-01T04:05:01;92144.47;;;3.26;85.63
16738;BME280;17906;47.684;10.806;2023-04-01T04:07:29;92138.06;;;3.38;84.37
16738;BME280;17906;47.684;10.806;2023-04-01T04:09:55;92131.91;;;3.49;83.11
16738;BME280;17906;47.684;10.806;2023-04-01T04:12:22;92142.84;;;3.48;84.80
16738;BME280;17906;47.684;10.806;2023-04-01T04:14:48;92154.00;;;3.45;84.88
16738;BME280;17906;47.684;10.806;2023-04-01T04:17:15;92163.09;;;3.32;86.87
16738;BME280;17906;47.684;10.806;2023-04-01T04:19:42;92163.56;;;3.29;87.83
16738;BME280;17906;47.684;10.806;2023-04-01T04:22:09;92182.41;;;3.22;90.02
16738;BME280;17906;47.684;10.806;2023-04-01T04:24:37;92166.75;;;2.96;92.39
16738;BME280;17906;47.684;10.806;2023-04-01T04:27:04;92172.88;;;2.85;92.24
16738;BME280;17906;47.684;10.806;2023-04-01T04:29:30;92166.94;;;2.83;93.17
16738;BME280;17906;47.684;10.806;2023-04-01T04:31:57;92168.66;;;2.77;93.59
16738;BME280;17906;47.684;10.806;2023-04-01T04:34:24;92163.19;;;2.72;93.88
16738;BME280;17906;47.684;10.806;2023-04-01T04:36:50;92168.63;;;2.65;93.86
16738;BME280;17906;47.684;10.806;2023-04-01T04:39:17;92173.06;;;2.72;91.38
16738;BME280;17906;47.684;10.806;2023-04-01T04:41:45;92162.25;;;2.78;90.96
16738;BME280;17906;47.684;10.806;2023-04-01T04:44:12;92165.97;;;2.77;91.08
16738;BME280;17906;47.684;10.806;2023-04-01T04:46:39;92169.59;;;2.71;92.30
16738;BME280;17906;47.684;10.806;2023-04-01T04:49:05;92170.25;;;2.67;92.86
16738;BME280;17906;47.684;10.806;2023-04-01T04:51:32;92160.94;;;2.69;91.64
16738;BME280;17906;47.684;10.806;2023-04-01T04:54:01;92166.41;;;2.62;91.79
16738;BME280;17906;47.684;10.806;2023-04-01T04:56:28;92167.34;;;2.68;92.51
16738;BME280;17906;47.684;10.806;2023-04-01T04:58:57;92168.03;;;2.63;91.28
16738;BME280;17906;47.684;10.806;2023-04-01T05:01:24;92173.25;;;2.58;92.22
16738;BME280;17906;47.684;10.806;2023-04-01T05:03:51;92158.91;;;2.53;93.26
16738;BME280;17906;47.684;10.806;2023-04-01T05:06:18;92161.88;;;2.63;90.51
16738;BME280;17906;47.684;10.806;2023-04-01T05:08:45;92161.72;;;2.58;90.53
16738;BME280;17906;47.684;10.806;2023-04-01T05:11:14;92159.19;;;2.63;90.82
16738;BME280;17906;47.684;10.806;2023-04-01T05:13:41;92168.50;;;2.60;91.31
16738;BME280;17906;47.684;10.806;2023-04-01T05:16:10;92168.97;;;2.69;91.11
16738;BME280;17906;47.684;10.806;2023-04-01T05:18:37;92167.97;;;2.70;91.24
16738;BME280;17906;47.684;10.806;2023-04-01T05:21:04;92167.97;;;2.70;90.44
16738;BME280;17906;47.684;10.806;2023-04-01T05:23:32;92170.53;;;2.77;90.82
16738;BME280;17906;47.684;10.806;2023-04-01T05:26:03;92167.38;;;2.80;89.51
16738;BME280;17906;47.684;10.806;2023-04-01T05:28:29;92167.53;;;2.85;90.49
16738;BME280;17906;47.684;10.806;2023-04-01T05:30:58;92176.97;;;2.87;89.44
16738;BME280;17906;47.684;10.806;2023-04-01T05:33:26;92164.97;;;2.90;88.59
16738;BME280;17906;47.684;10.806;2023-04-01T05:35:53;92165.09;;;2.83;89.62
16738;BME280;17906;47.684;10.806;2023-04-01T05:38:20;92160.00;;;2.93;88.19
16738;BME280;17906;47.684;10.806;2023-04-01T05:40:47;92158.25;;;2.99;86.57
16738;BME280;17906;47.684;10.806;2023-04-01T05:43:13;92152.09;;;2.99;86.02
16738;BME280;17906;47.684;10.806;2023-04-01T05:45:40;92144.53;;;2.96;87.14
16738;BME280;17906;47.684;10.806;2023-04-01T05:48:07;92135.13;;;3.05;85.05
16738;BME280;17906;47.684;10.806;2023-04-01T05:50:34;92120.94;;;3.16;81.98
16738;BME280;17906;47.684;10.806;2023-04-01T05:53:01;92127.34;;;3.27;80.78
16738;BME280;17906;47.684;10.806;2023-04-01T05:55:28;92130.59;;;3.29;83.27
16738;BME280;17906;47.684;10.806;2023-04-01T05:57:54;92126.31;;;3.39;82.17
16738;BME280;17906;47.684;10.806;2023-04-01T06:00:21;92126.44;;;3.56;80.33
16738;BME280;17906;47.684;10.806;2023-04-01T06:02:48;92135.41;;;3.73;79.00
16738;BME280;17906;47.684;10.806;2023-04-01T06:05:18;92122.56;;;3.87;76.26
16738;BME280;17906;47.684;10.806;2023-04-01T06:07:47;92129.44;;;4.06;76.64
16738;BME280;17906;47.684;10.806;2023-04-01T06:10:15;92129.13;;;4.31;73.96
16738;BME280;17906;47.684;10.806;2023-04-01T06:12:50;92141.97;;;4.29;75.52
16738;BME280;17906;47.684;10.806;2023-04-01T06:15:29;92133.34;;;4.27;74.75
16738;BME280;17906;47.684;10.806;2023-04-01T06:18:09;92141.47;;;4.44;75.90
16738;BME280;17906;47.684;10.806;2023-04-01T06:20:43;92137.41;;;4.30;74.64
16738;BME280;17906;47.684;10.806;2023-04-01T06:23:27;92159.38;;;4.15;78.83
16738;BME280;17906;47.684;10.806;2023-04-01T06:26:06;92158.69;;;4.08;80.44
16738;BME280;17906;47.684;10.806;2023-04-01T06:31:45;92160.47;;;3.67;84.21
16738;BME280;17906;47.684;10.806;2023-04-01T06:34:24;92177.34;;;3.56;84.81
16738;BME280;17906;47.684;10.806;2023-04-01T06:37:02;92182.56;;;3.51;85.43
16738;BME280;17906;47.684;10.806;2023-04-01T06:39:45;92182.09;;;3.42;86.78
16738;BME280;17906;47.684;10.806;2023-04-01T06:42:33;92173.94;;;3.49;86.82
16738;BME280;17906;47.684;10.806;2023-04-01T06:45:12;92161.63;;;3.71;85.17
16738;BME280;17906;47.684;10.806;2023-04-01T06:47:54;92166.66;;;3.79;83.70
16738;BME280;17906;47.684;10.806;2023-04-01T06:50:26;92164.03;;;4.20;80.44
16738;BME280;17906;47.684;10.806;2023-04-01T06:53:00;92152.56;;;4.76;79.17
16738;BME280;17906;47.684;10.806;2023-04-01T06:55:35;92162.75;;;5.19;74.10
16738;BME280;17906;47.684;10.806;2023-04-01T06:58:11;92164.88;;;5.34;75.92
16738;BME280;17906;47.684;10.806;2023-04-01T07:00:42;92151.28;;;5.58;74.15
16738;BME280;17906;47.684;10.806;2023-04-01T07:03:16;92160.72;;;5.77;73.45
16738;BME280;17906;47.684;10.806;2023-04-01T07:05:45;92159.00;;;5.88;73.14
16738;BME280;17906;47.684;10.806;2023-04-01T07:08:13;92164.28;;;5.49;69.62
16738;BME280;17906;47.684;10.806;2023-04-01T07:10:47;92163.72;;;5.30;70.86
16738;BME280;17906;47.684;10.806;2023-04-01T07:13:21;92166.47;;;5.18;73.37
16738;BME280;17906;47.684;10.806;2023-04-01T07:15:58;92155.47;;;5.03;70.99
16738;BME280;17906;47.684;10.806;2023-04-01T07:18:33;92170.22;;;5.51;71.06
16738;BME280;17906;47.684;10.806;2023-04-01T07:21:01;92148.63;;;6.13;66.62
16738;BME280;17906;47.684;10.806;2023-04-01T07:23:32;92139.19;;;6.10;68.11
16738;BME280;17906;47.684;10.806;2023-04-01T07:26:06;92150.63;;;6.23;68.15
16738;BME280;17906;47.684;10.806;2023-04-01T07:28:34;92147.19;;;6.27;64.70
16738;BME280;17906;47.684;10.806;2023-04-01T07:31:08;92130.34;;;6.15;65.81
16738;BME280;17906;47.684;10.806;2023-04-01T07:33:39;92135.25;;;6.01;67.06
16738;BME280;17906;47.684;10.806;2023-04-01T07:36:13;92142.44;;;6.34;66.93
16738;BME280;17906;47.684;10.806;2023-04-01T07:38:54;92125.97;;;6.75;64.49
16738;BME280;17906;47.684;10.806;2023-04-01T07:41:30;92132.81;;;7.36;61.11
16738;BME280;17906;47.684;10.806;2023-04-01T07:44:06;92148.13;;;7.63;61.83
16738;BME280;17906;47.684;10.806;2023-04-01T07:46:50;92147.59;;;7.34;61.65
16738;BME280;17906;47.684;10.806;2023-04-01T07:49:28;92147.31;;;6.81;64.21
16738;BME280;17906;47.684;10.806;2023-04-01T07:52:00;92164.41;;;6.70;65.98
16738;BME280;17906;47.684;10.806;2023-04-01T07:54:35;92129.25;;;7.63;59.32
16738;BME280;17906;47.684;10.806;2023-04-01T07:57:11;92140.38;;;8.03;57.22
16738;BME280;17906;47.684;10.806;2023-04-01T07:59:47;92140.38;;;8.03;57.22
16738;BME280;17906;47.684;10.806;2023-04-01T08:02:28;92151.28;;;7.54;60.95
16738;BME280;17906;47.684;10.806;2023-04-01T08:05:04;92145.41;;;7.63;57.29
16738;BME280;17906;47.684;10.806;2023-04-01T08:07:42;92142.53;;;8.54;57.13
16738;BME280;17906;47.684;10.806;2023-04-01T08:10:16;92144.84;;;8.30;56.35
16738;BME280;17906;47.684;10.806;2023-04-01T08:12:53;92133.34;;;8.55;56.12
16738;BME280;17906;47.684;10.806;2023-04-01T08:15:27;92127.88;;;9.12;53.32
16738;BME280;17906;47.684;10.806;2023-04-01T08:18:03;92137.88;;;9.07;54.36
16738;BME280;17906;47.684;10.806;2023-04-01T08:20:34;92120.59;;;9.28;53.75
16738;BME280;17906;47.684;10.806;2023-04-01T08:23:07;92117.56;;;10.57;48.19
16738;BME280;17906;47.684;10.806;2023-04-01T08:25:39;92111.09;;;10.53;47.63
16738;BME280;17906;47.684;10.806;2023-04-01T08:28:16;92113.94;;;9.86;48.61
16738;BME280;17906;47.684;10.806;2023-04-01T08:30:47;92111.69;;;10.29;48.28
16738;BME280;17906;47.684;10.806;2023-04-01T08:33:19;92111.38;;;11.16;50.24
16738;BME280;17906;47.684;10.806;2023-04-01T08:35:51;92111.22;;;10.92;45.61
16738;BME280;17906;47.684;10.806;2023-04-01T08:38:23;92121.00;;;10.88;47.81
16738;BME280;17906;47.684;10.806;2023-04-01T08:41:06;92114.13;;;10.31;49.08
16738;BME280;17906;47.684;10.806;2023-04-01T08:43:51;92122.03;;;10.02;50.46
16738;BME280;17906;47.684;10.806;2023-04-01T08:46:44;92131.47;;;9.48;50.87
16738;BME280;17906;47.684;10.806;2023-04-01T08:49:34;92126.78;;;9.08;51.88
16738;BME280;17906;47.684;10.806;2023-04-01T08:52:33;92142.94;;;8.30;53.43
16738;BME280;17906;47.684;10.806;2023-04-01T08:55:37;92143.69;;;8.21;53.52
16738;BME280;17906;47.684;10.806;2023-04-01T08:58:38;92125.44;;;9.00;51.74
16738;BME280;17906;47.684;10.806;2023-04-01T09:01:17;92129.81;;;9.32;52.67
16738;BME280;17906;47.684;10.806;2023-04-01T09:04:01;92114.97;;;10.21;47.85
16738;BME280;17906;47.684;10.806;2023-04-01T09:06:37;92123.63;;;9.52;49.72
16738;BME280;17906;47.684;10.806;2023-04-01T09:09:37;92122.16;;;8.98;49.61
16738;BME280;17906;47.684;10.806;2023-04-01T09:12:23;92123.75;;;8.84;50.53
16738;BME280;17906;47.684;10.806;2023-04-01T09:15:15;92120.47;;;8.72;51.07
16738;BME280;17906;47.684;10.806;2023-04-01T09:21:02;92115.72;;;8.42;53.73
16738;BME280;17906;47.684;10.806;2023-04-01T09:23:40;92135.47;;;8.00;53.61
16738;BME280;17906;47.684;10.806;2023-04-01T09:26:24;92130.13;;;8.10;54.12
16738;BME280;17906;47.684;10.806;2023-04-01T09:29:02;92126.88;;;8.08;53.84
16738;BME280;17906;47.684;10.806;2023-04-01T09:31:55;92112.59;;;8.08;53.24
16738;BME280;17906;47.684;10.806;2023-04-01T09:34:52;92123.72;;;8.17;52.05
16738;BME280;17906;47.684;10.806;2023-04-01T09:37:30;92114.81;;;8.21;53.92
16738;BME280;17906;47.684;10.806;2023-04-01T09:40:15;92110.75;;;8.13;54.51
16738;BME280;17906;47.684;10.806;2023-04-01T09:42:45;92117.19;;;8.65;53.32
16738;BME280;17906;47.684;10.806;2023-04-01T09:45:25;92107.34;;;9.11;51.24
16738;BME280;17906;47.684;10.806;2023-04-01T09:48:05;92120.25;;;8.89;53.57
16738;BME280;17906;47.684;10.806;2023-04-01T09:50:42;92119.38;;;8.73;52.05
16738;BME280;17906;47.684;10.806;2023-04-01T09:53:31;92123.06;;;8.47;54.55
16738;BME280;17906;47.684;10.806;2023-04-01T09:56:18;92126.63;;;8.10;55.65
16738;BME280;17906;47.684;10.806;2023-04-01T09:59:08;92119.03;;;8.02;55.22
16738;BME280;17906;47.684;10.806;2023-04-01T10:01:57;92125.06;;;7.82;56.65
16738;BME280;17906;47.684;10.806;2023-04-01T10:08:08;92145.72;;;7.66;58.56
16738;BME280;17906;47.684;10.806;2023-04-01T10:10:53;92128.06;;;7.53;58.05
16738;BME280;17906;47.684;10.806;2023-04-01T10:13:38;92143.25;;;7.60;58.16
16738;BME280;17906;47.684;10.806;2023-04-01T10:16:37;92129.88;;;7.75;60.71
16738;BME280;17906;47.684;10.806;2023-04-01T10:19:34;92142.47;;;7.96;59.17
16738;BME280;17906;47.684;10.806;2023-04-01T10:22:28;92141.66;;;7.96;59.92
16738;BME280;17906;47.684;10.806;2023-04-01T10:25:19;92134.50;;;8.17;60.61
16738;BME280;17906;47.684;10.806;2023-04-01T10:28:14;92130.66;;;8.02;59.77
16738;BME280;17906;47.684;10.806;2023-04-01T10:31:11;92149.88;;;8.16;60.84
16738;BME280;17906;47.684;10.806;2023-04-01T10:34:02;92140.91;;;8.05;59.57
16738;BME280;17906;47.684;10.806;2023-04-01T10:36:52;92147.72;;;8.13;58.74
16738;BME280;17906;47.684;10.806;2023-04-01T10:39:34;92140.75;;;7.90;60.42
16738;BME280;17906;47.684;10.806;2023-04-01T10:45:20;92150.81;;;7.63;62.62
16738;BME280;17906;47.684;10.806;2023-04-01T10:53:49;92151.97;;;7.13;62.61
16738;BME280;17906;47.684;10.806;2023-04-01T10:56:34;92145.03;;;7.22;64.10
16738;BME280;17906;47.684;10.806;2023-04-01T10:59:25;92148.72;;;7.11;63.82
16738;BME280;17906;47.684;10.806;2023-04-01T11:05:29;92149.31;;;6.91;65.25
16738;BME280;17906;47.684;10.806;2023-04-01T11:11:20;92165.47;;;6.91;67.85
16738;BME280;17906;47.684;10.806;2023-04-01T11:14:25;92175.44;;;6.90;67.78
16738;BME280;17906;47.684;10.806;2023-04-01T11:17:25;92171.19;;;6.94;69.00
16738;BME280;17906;47.684;10.806;2023-04-01T11:20:24;92175.50;;;6.95;69.43
16738;BME280;17906;47.684;10.806;2023-04-01T11:23:15;92181.28;;;6.82;68.05
16738;BME280;17906;47.684;10.806;2023-04-01T11:26:05;92173.38;;;6.54;68.40
16738;BME280;17906;47.684;10.806;2023-04-01T11:31:44;92180.00;;;6.24;70.08
16738;BME280;17906;47.684;10.806;2023-04-01T11:34:34;92172.16;;;6.23;70.07
16738;BME280;17906;47.684;10.806;2023-04-01T11:37:16;92180.66;;;6.15;70.64
16738;BME280;17906;47.684;10.806;2023-04-01T11:39:58;92183.81;;;6.28;71.13
16738;BME280;17906;47.684;10.806;2023-04-01T11:42:34;92180.13;;;6.34;72.05
16738;BME280;17906;47.684;10.806;2023-04-01T11:45:15;92182.63;;;6.19;71.56
16738;BME280;17906;47.684;10.806;2023-04-01T11:48:07;92189.38;;;6.22;72.23
16738;BME280;17906;47.684;10.806;2023-04-01T11:50:51;92195.56;;;6.22;71.75
16738;BME280;17906;47.684;10.806;2023-04-01T11:53:29;92195.63;;;6.27;73.84
16738;BME280;17906;47.684;10.806;2023-04-01T11:56:07;92203.22;;;6.30;74.64
16738;BME280;17906;47.684;10.806;2023-04-01T11:58:48;92192.88;;;6.22;74.02
16738;BME280;17906;47.684;10.806;2023-04-01T12:01:27;92194.69;;;6.17;74.16
16738;BME280;17906;47.684;10.806;2023-04-01T12:07:03;92206.94;;;6.07;73.94
16738;BME280;17906;47.684;10.806;2023-04-01T12:09:40;92190.28;;;5.94;74.00
16738;BME280;17906;47.684;10.806;2023-04-01T12:12:19;92177.22;;;6.02;73.57
16738;BME280;17906;47.684;10.806;2023-04-01T12:14:57;92181.97;;;5.95;75.04
16738;BME280;17906;47.684;10.806;2023-04-01T12:17:35;92176.59;;;5.95;72.59
16738;BME280;17906;47.684;10.806;2023-04-01T12:20:21;92184.00;;;5.88;72.38
16738;BME280;17906;47.684;10.806;2023-04-01T12:22:59;92188.00;;;5.86;71.65
16738;BME280;17906;47.684;10.806;2023-04-01T12:25:44;92184.25;;;5.87;69.91
16738;BME280;17906;47.684;10.806;2023-04-01T12:28:21;92184.81;;;5.72;71.55
16738;BME280;17906;47.684;10.806;2023-04-01T12:31:01;92179.38;;;5.67;71.86
16738;BME280;17906;47.684;10.806;2023-04-01T12:33:52;92181.97;;;5.62;70.86
16738;BME280;17906;47.684;10.806;2023-04-01T12:36:32;92179.78;;;5.59;71.98
16738;BME280;17906;47.684;10.806;2023-04-01T12:39:29;92176.44;;;5.68;71.84
16738;BME280;17906;47.684;10.806;2023-04-01T12:42:05;92175.69;;;5.73;71.05
16738;BME280;17906;47.684;10.806;2023-04-01T12:44:44;92174.88;;;5.72;69.99
16738;BME280;17906;47.684;10.806;2023-04-01T12:47:33;92186.28;;;5.79;71.77
16738;BME280;17906;47.684;10.806;2023-04-01T12:50:19;92180.00;;;5.91;72.44
16738;BME280;17906;47.684;10.806;2023-04-01T12:53:01;92172.50;;;5.93;69.43
16738;BME280;17906;47.684;10.806;2023-04-01T12:55:38;92176.44;;;5.85;69.37
16738;BME280;17906;47.684;10.806;2023-04-01T13:01:19;92171.94;;;5.91;68.84
16738;BME280;17906;47.684;10.806;2023-04-01T13:04:06;92170.56;;;5.88;70.52
16738;BME280;17906;47.684;10.806;2023-04-01T13:06:49;92171.22;;;5.95;68.64
16738;BME280;17906;47.684;10.806;2023-04-01T13:09:29;92180.59;;;6.09;69.90
16738;BME280;17906;47.684;10.806;2023-04-01T13:12:19;92181.94;;;6.29;69.39
16738;BME280;17906;47.684;10.806;2023-04-01T13:17:53;92178.06;;;6.20;70.10
16738;BME280;17906;47.684;10.806;2023-04-01T13:20:27;92194.75;;;6.22;69.07
16738;BME280;17906;47.684;10.806;2023-04-01T13:23:06;92192.72;;;6.12;69.65
16738;BME280;17906;47.684;10.806;2023-04-01T13:25:41;92183.50;;;6.25;69.26
16738;BME280;17906;47.684;10.806;2023-04-01T13:28:18;92177.69;;;6.33;68.74
16738;BME280;17906;47.684;10.806;2023-04-01T13:30:49;92172.00;;;6.29;69.38
16738;BME280;17906;47.684;10.806;2023-04-01T13:33:25;92171.94;;;6.46;69.15
16738;BME280;17906;47.684;10.806;2023-04-01T13:36:02;92166.38;;;6.53;66.86
16738;BME280;17906;47.684;10.806;2023-04-01T13:38:49;92171.06;;;6.62;68.34
16738;BME280;17906;47.684;10.806;2023-04-01T13:41:23;92169.63;;;6.77;67.51
16738;BME280;17906;47.684;10.806;2023-04-01T13:43:59;92168.13;;;6.86;67.70
16738;BME280;17906;47.684;10.806;2023-04-01T13:46:59;92166.75;;;6.83;65.98
16738;BME280;17906;47.684;10.806;2023-04-01T13:52:46;92188.34;;;6.88;66.91
16738;BME280;17906;47.684;10.806;2023-04-01T13:55:26;92186.03;;;6.75;67.97
16738;BME280;17906;47.684;10.806;2023-04-01T13:58:10;92181.91;;;6.67;66.11
16738;BME280;17906;47.684;10.806;2023-04-01T14:00:53;92186.84;;;6.54;67.90
16738;BME280;17906;47.684;10.806;2023-04-01T14:03:30;92190.53;;;6.48;68.67
16738;BME280;17906;47.684;10.806;2023-04-01T14:06:19;92199.34;;;6.43;71.15
16738;BME280;17906;47.684;10.806;2023-04-01T14:09:00;92195.56;;;6.39;71.18
16738;BME280;17906;47.684;10.806;2023-04-01T14:11:36;92213.03;;;6.20;72.60
16738;BME280;17906;47.684;10.806;2023-04-01T14:14:16;92205.38;;;6.11;72.87
16738;BME280;17906;47.684;10.806;2023-04-01T14:17:10;92222.63;;;5.99;74.06
16738;BME280;17906;47.684;10.806;2023-04-01T14:19:51;92232.09;;;5.84;76.45
16738;BME280;17906;47.684;10.806;2023-04-01T14:22:28;92248.59;;;5.60;78.85